sensor_id;sensor_type;location;lat;lon;timestamp;P1;durP1;ratioP1;P2;durP2;ratioP2
73850;SDS011;62190;51.548;5.688;2024-01-11T00:02:09;17.40;;;8.65;;
73850;SDS011;62190;51.548;5.688;2024-01-11T00:04:36;17.07;;;8.08;;
73850;SDS011;62190;51.548;5.688;2024-01-11T00:07:05;16.85;;;7.90;;
73850;SDS011;62190;51.548;5.688;2024-01-11T00:09:33;20.20;;;8.70;;
73850;SDS011;62190;51.548;5.688;2024-01-11T00:12:00;17.73;;;7.83;;
73850;SDS011;62190;51.548;5.688;2024-01-11T00:14:27;18.30;;;7.30;;
73850;SDS011;62190;51.548;5.688;2024-01-11T00:16:55;16.20;;;7.45;;
73850;SDS011;62190;51.548;5.688;2024-01-11T00:19:22;17.85;;;7.92;;
73850;SDS011;62190;51.548;5.688;2024-01-11T00:21:49;14.85;;;8.73;;
73850;SDS011;62190;51.548;5.688;2024-01-11T00:24:16;24.18;;;8.03;;
73850;SDS011;62190;51.548;5.688;2024-01-11T00:26:44;23.57;;;7.22;;
73850;SDS011;62190;51.548;5.688;2024-01-11T00:29:11;19.75;;;8.60;;
73850;SDS011;62190;51.548;5.688;2024-01-11T00:31:39;18.07;;;7.37;;
73850;SDS011;62190;51.548;5.688;2024-01-11T00:34:06;17.12;;;7.72;;
73850;SDS011;62190;51.548;5.688;2024-01-11T00:36:33;19.05;;;7.70;;
73850;SDS011;62190;51.548;5.688;2024-01-11T00:39:02;13.85;;;7.37;;
73850;SDS011;62190;51.548;5.688;2024-01-11T00:41:29;18.05;;;9.00;;
73850;SDS011;62190;51.548;5.688;2024-01-11T00:43:57;16.82;;;8.10;;
73850;SDS011;62190;51.548;5.688;2024-01-11T00:46:24;16.07;;;6.87;;
73850;SDS011;62190;51.548;5.688;2024-01-11T00:48:52;17.05;;;6.78;;
73850;SDS011;62190;51.548;5.688;2024-01-11T00:51:19;14.85;;;7.40;;
73850;SDS011;62190;51.548;5.688;2024-01-11T00:53:46;18.67;;;8.40;;
73850;SDS011;62190;51.548;5.688;2024-01-11T00:56:17;19.25;;;8.68;;
73850;SDS011;62190;51.548;5.688;2024-01-11T00:58:44;22.00;;;8.83;;
73850;SDS011;62190;51.548;5.688;2024-01-11T01:01:12;21.60;;;9.25;;
73850;SDS011;62190;51.548;5.688;2024-01-11T01:03:39;16.77;;;7.28;;
73850;SDS011;62190;51.548;5.688;2024-01-11T01:06:07;19.57;;;7.83;;
73850;SDS011;62190;51.548;5.688;2024-01-11T01:08:34;18.60;;;9.05;;
73850;SDS011;62190;51.548;5.688;2024-01-11T01:11:01;12.13;;;6.80;;
73850;SDS011;62190;51.548;5.688;2024-01-11T01:13:29;20.60;;;9.30;;
73850;SDS011;62190;51.548;5.688;2024-01-11T01:15:56;16.93;;;7.10;;
73850;SDS011;62190;51.548;5.688;2024-01-11T01:18:24;18.70;;;7.85;;
73850;SDS011;62190;51.548;5.688;2024-01-11T01:20:51;17.95;;;8.03;;
73850;SDS011;62190;51.548;5.688;2024-01-11T01:23:18;18.05;;;7.47;;
73850;SDS011;62190;51.548;5.688;2024-01-11T01:25:46;18.95;;;8.10;;
73850;SDS011;62190;51.548;5.688;2024-01-11T01:28:13;24.43;;;8.65;;
73850;SDS011;62190;51.548;5.688;2024-01-11T01:30:40;18.50;;;7.70;;
73850;SDS011;62190;51.548;5.688;2024-01-11T01:33:07;19.75;;;8.10;;
73850;SDS011;62190;51.548;5.688;2024-01-11T01:35:35;22.82;;;8.80;;
73850;SDS011;62190;51.548;5.688;2024-01-11T01:38:02;22.73;;;8.00;;
73850;SDS011;62190;51.548;5.688;2024-01-11T01:40:30;19.35;;;9.45;;
73850;SDS011;62190;51.548;5.688;2024-01-11T01:43:00;17.95;;;8.60;;
73850;SDS011;62190;51.548;5.688;2024-01-11T01:45:27;20.20;;;9.20;;
73850;SDS011;62190;51.548;5.688;2024-01-11T01:47:55;18.60;;;8.20;;
73850;SDS011;62190;51.548;5.688;2024-01-11T01:50:22;19.80;;;8.70;;
73850;SDS011;62190;51.548;5.688;2024-01-11T01:52:50;18.20;;;8.13;;
73850;SDS011;62190;51.548;5.688;2024-01-11T01:55:17;20.32;;;9.05;;
73850;SDS011;62190;51.548;5.688;2024-01-11T01:57:45;20.62;;;9.20;;
73850;SDS011;62190;51.548;5.688;2024-01-11T02:00:13;18.07;;;7.25;;
73850;SDS011;62190;51.548;5.688;2024-01-11T02:02:41;21.97;;;9.75;;
73850;SDS011;62190;51.548;5.688;2024-01-11T02:05:11;22.00;;;8.15;;
73850;SDS011;62190;51.548;5.688;2024-01-11T02:07:40;25.17;;;9.33;;
73850;SDS011;62190;51.548;5.688;2024-01-11T02:10:08;20.88;;;8.35;;
73850;SDS011;62190;51.548;5.688;2024-01-11T02:12:35;27.62;;;9.13;;
73850;SDS011;62190;51.548;5.688;2024-01-11T02:15:06;17.92;;;7.90;;
73850;SDS011;62190;51.548;5.688;2024-01-11T02:17:34;18.05;;;10.15;;
73850;SDS011;62190;51.548;5.688;2024-01-11T02:20:01;23.20;;;9.03;;
73850;SDS011;62190;51.548;5.688;2024-01-11T02:22:34;23.95;;;9.03;;
73850;SDS011;62190;51.548;5.688;2024-01-11T02:25:02;21.40;;;9.43;;
73850;SDS011;62190;51.548;5.688;2024-01-11T02:27:29;15.65;;;7.03;;
73850;SDS011;62190;51.548;5.688;2024-01-11T02:29:56;17.60;;;9.05;;
73850;SDS011;62190;51.548;5.688;2024-01-11T02:32:24;22.13;;;8.55;;
73850;SDS011;62190;51.548;5.688;2024-01-11T02:34:51;24.72;;;10.32;;
73850;SDS011;62190;51.548;5.688;2024-01-11T02:37:18;16.05;;;8.05;;
73850;SDS011;62190;51.548;5.688;2024-01-11T02:39:46;17.12;;;8.05;;
73850;SDS011;62190;51.548;5.688;2024-01-11T02:42:13;22.15;;;10.20;;
73850;SDS011;62190;51.548;5.688;2024-01-11T02:44:41;20.85;;;9.38;;
73850;SDS011;62190;51.548;5.688;2024-01-11T02:47:08;19.82;;;8.43;;
73850;SDS011;62190;51.548;5.688;2024-01-11T02:49:35;21.95;;;8.48;;
73850;SDS011;62190;51.548;5.688;2024-01-11T02:52:03;21.33;;;9.48;;
73850;SDS011;62190;51.548;5.688;2024-01-11T02:54:31;20.02;;;8.60;;
73850;SDS011;62190;51.548;5.688;2024-01-11T02:56:58;20.08;;;8.75;;
73850;SDS011;62190;51.548;5.688;2024-01-11T02:59:25;24.12;;;9.03;;
73850;SDS011;62190;51.548;5.688;2024-01-11T03:01:52;28.23;;;10.00;;
73850;SDS011;62190;51.548;5.688;2024-01-11T03:04:20;18.30;;;7.08;;
73850;SDS011;62190;51.548;5.688;2024-01-11T03:06:47;19.00;;;8.90;;
73850;SDS011;62190;51.548;5.688;2024-01-11T03:09:14;23.27;;;9.28;;
73850;SDS011;62190;51.548;5.688;2024-01-11T03:11:41;17.98;;;9.05;;
73850;SDS011;62190;51.548;5.688;2024-01-11T03:14:09;21.05;;;8.68;;
73850;SDS011;62190;51.548;5.688;2024-01-11T03:16:36;19.95;;;8.05;;
73850;SDS011;62190;51.548;5.688;2024-01-11T03:19:05;18.45;;;8.40;;
73850;SDS011;62190;51.548;5.688;2024-01-11T03:21:32;14.00;;;6.92;;
73850;SDS011;62190;51.548;5.688;2024-01-11T03:24:00;25.95;;;8.80;;
73850;SDS011;62190;51.548;5.688;2024-01-11T03:26:27;21.23;;;8.90;;
73850;SDS011;62190;51.548;5.688;2024-01-11T03:28:54;22.10;;;8.20;;
73850;SDS011;62190;51.548;5.688;2024-01-11T03:31:21;11.48;;;7.53;;
73850;SDS011;62190;51.548;5.688;2024-01-11T03:33:49;20.90;;;7.62;;
73850;SDS011;62190;51.548;5.688;2024-01-11T03:36:16;17.90;;;7.78;;
73850;SDS011;62190;51.548;5.688;2024-01-11T03:38:43;18.98;;;8.33;;
73850;SDS011;62190;51.548;5.688;2024-01-11T03:41:11;21.10;;;9.10;;
73850;SDS011;62190;51.548;5.688;2024-01-11T03:43:38;18.85;;;8.55;;
73850;SDS011;62190;51.548;5.688;2024-01-11T03:46:05;16.80;;;8.00;;
73850;SDS011;62190;51.548;5.688;2024-01-11T03:48:33;19.55;;;7.97;;
73850;SDS011;62190;51.548;5.688;2024-01-11T03:51:03;15.75;;;7.45;;
73850;SDS011;62190;51.548;5.688;2024-01-11T03:53:35;23.50;;;7.62;;
73850;SDS011;62190;51.548;5.688;2024-01-11T03:56:02;20.00;;;8.75;;
73850;SDS011;62190;51.548;5.688;2024-01-11T03:58:30;15.93;;;8.68;;
73850;SDS011;62190;51.548;5.688;2024-01-11T04:00:58;21.75;;;8.38;;
73850;SDS011;62190;51.548;5.688;2024-01-11T04:03:26;18.75;;;8.13;;
73850;SDS011;62190;51.548;5.688;2024-01-11T04:05:53;22.55;;;9.23;;
73850;SDS011;62190;51.548;5.688;2024-01-11T04:08:21;19.95;;;8.60;;
73850;SDS011;62190;51.548;5.688;2024-01-11T04:10:48;20.45;;;8.13;;
73850;SDS011;62190;51.548;5.688;2024-01-11T04:13:15;18.77;;;8.43;;
73850;SDS011;62190;51.548;5.688;2024-01-11T04:15:43;18.73;;;7.85;;
73850;SDS011;62190;51.548;5.688;2024-01-11T04:18:10;16.60;;;8.33;;
73850;SDS011;62190;51.548;5.688;2024-01-11T04:20:37;17.77;;;7.37;;
73850;SDS011;62190;51.548;5.688;2024-01-11T04:23:05;16.70;;;8.00;;
73850;SDS011;62190;51.548;5.688;2024-01-11T04:25:32;17.02;;;7.62;;
73850;SDS011;62190;51.548;5.688;2024-01-11T04:27:59;16.02;;;6.90;;
73850;SDS011;62190;51.548;5.688;2024-01-11T04:30:26;21.02;;;7.67;;
73850;SDS011;62190;51.548;5.688;2024-01-11T04:32:54;16.32;;;8.23;;
73850;SDS011;62190;51.548;5.688;2024-01-11T04:35:21;13.48;;;6.40;;
73850;SDS011;62190;51.548;5.688;2024-01-11T04:37:48;19.45;;;7.90;;
73850;SDS011;62190;51.548;5.688;2024-01-11T04:40:16;25.68;;;8.10;;
73850;SDS011;62190;51.548;5.688;2024-01-11T04:42:43;23.87;;;9.70;;
73850;SDS011;62190;51.548;5.688;2024-01-11T04:45:10;12.65;;;7.10;;
73850;SDS011;62190;51.548;5.688;2024-01-11T04:47:38;19.65;;;7.60;;
73850;SDS011;62190;51.548;5.688;2024-01-11T04:50:06;12.80;;;6.08;;
73850;SDS011;62190;51.548;5.688;2024-01-11T04:52:34;16.90;;;6.95;;
73850;SDS011;62190;51.548;5.688;2024-01-11T04:55:01;18.50;;;6.75;;
73850;SDS011;62190;51.548;5.688;2024-01-11T04:57:29;20.80;;;7.72;;
73850;SDS011;62190;51.548;5.688;2024-01-11T04:59:57;19.25;;;7.67;;
73850;SDS011;62190;51.548;5.688;2024-01-11T05:02:24;17.52;;;7.55;;
73850;SDS011;62190;51.548;5.688;2024-01-11T05:04:51;16.40;;;7.25;;
73850;SDS011;62190;51.548;5.688;2024-01-11T05:07:19;17.02;;;6.75;;
73850;SDS011;62190;51.548;5.688;2024-01-11T05:09:47;14.38;;;6.42;;
73850;SDS011;62190;51.548;5.688;2024-01-11T05:12:15;13.03;;;7.33;;
73850;SDS011;62190;51.548;5.688;2024-01-11T05:14:42;18.87;;;6.53;;
73850;SDS011;62190;51.548;5.688;2024-01-11T05:17:10;16.40;;;6.37;;
73850;SDS011;62190;51.548;5.688;2024-01-11T05:19:37;18.23;;;6.97;;
73850;SDS011;62190;51.548;5.688;2024-01-11T05:22:06;14.05;;;6.60;;
73850;SDS011;62190;51.548;5.688;2024-01-11T05:24:33;18.92;;;5.97;;
73850;SDS011;62190;51.548;5.688;2024-01-11T05:27:00;15.68;;;6.58;;
73850;SDS011;62190;51.548;5.688;2024-01-11T05:29:28;12.37;;;7.42;;
73850;SDS011;62190;51.548;5.688;2024-01-11T05:31:55;19.35;;;7.55;;
73850;SDS011;62190;51.548;5.688;2024-01-11T05:34:22;20.15;;;7.53;;
73850;SDS011;62190;51.548;5.688;2024-01-11T05:36:50;17.60;;;7.08;;
73850;SDS011;62190;51.548;5.688;2024-01-11T05:39:17;18.30;;;6.80;;
73850;SDS011;62190;51.548;5.688;2024-01-11T05:41:44;16.45;;;7.50;;
73850;SDS011;62190;51.548;5.688;2024-01-11T05:44:12;19.95;;;8.13;;
73850;SDS011;62190;51.548;5.688;2024-01-11T05:46:39;13.93;;;6.12;;
73850;SDS011;62190;51.548;5.688;2024-01-11T05:49:06;14.63;;;6.55;;
73850;SDS011;62190;51.548;5.688;2024-01-11T05:51:34;20.95;;;7.37;;
73850;SDS011;62190;51.548;5.688;2024-01-11T05:54:01;16.15;;;7.05;;
73850;SDS011;62190;51.548;5.688;2024-01-11T05:56:28;19.48;;;6.92;;
73850;SDS011;62190;51.548;5.688;2024-01-11T05:58:56;16.77;;;6.42;;
73850;SDS011;62190;51.548;5.688;2024-01-11T06:01:24;11.25;;;5.75;;
73850;SDS011;62190;51.548;5.688;2024-01-11T06:03:51;17.35;;;6.00;;
73850;SDS011;62190;51.548;5.688;2024-01-11T06:06:19;15.30;;;6.25;;
73850;SDS011;62190;51.548;5.688;2024-01-11T06:08:46;11.57;;;6.47;;
73850;SDS011;62190;51.548;5.688;2024-01-11T06:11:14;16.97;;;6.80;;
73850;SDS011;62190;51.548;5.688;2024-01-11T06:13:43;11.30;;;5.80;;
73850;SDS011;62190;51.548;5.688;2024-01-11T06:16:10;15.40;;;7.20;;
73850;SDS011;62190;51.548;5.688;2024-01-11T06:18:37;16.50;;;6.12;;
73850;SDS011;62190;51.548;5.688;2024-01-11T06:21:04;20.52;;;7.87;;
73850;SDS011;62190;51.548;5.688;2024-01-11T06:23:32;12.47;;;6.50;;
73850;SDS011;62190;51.548;5.688;2024-01-11T06:25:59;15.15;;;5.87;;
73850;SDS011;62190;51.548;5.688;2024-01-11T06:28:27;12.80;;;6.20;;
73850;SDS011;62190;51.548;5.688;2024-01-11T06:30:54;18.02;;;7.20;;
73850;SDS011;62190;51.548;5.688;2024-01-11T06:33:21;11.73;;;5.45;;
73850;SDS011;62190;51.548;5.688;2024-01-11T06:35:49;18.27;;;5.97;;
73850;SDS011;62190;51.548;5.688;2024-01-11T06:38:16;16.45;;;5.75;;
73850;SDS011;62190;51.548;5.688;2024-01-11T06:40:43;15.85;;;4.58;;
73850;SDS011;62190;51.548;5.688;2024-01-11T06:43:11;16.57;;;6.65;;
73850;SDS011;62190;51.548;5.688;2024-01-11T06:45:38;14.25;;;6.12;;
73850;SDS011;62190;51.548;5.688;2024-01-11T06:48:05;15.75;;;6.92;;
73850;SDS011;62190;51.548;5.688;2024-01-11T06:50:33;16.97;;;7.67;;
73850;SDS011;62190;51.548;5.688;2024-01-11T06:53:00;10.90;;;5.72;;
73850;SDS011;62190;51.548;5.688;2024-01-11T06:55:28;17.05;;;6.53;;
73850;SDS011;62190;51.548;5.688;2024-01-11T06:57:55;11.93;;;5.83;;
73850;SDS011;62190;51.548;5.688;2024-01-11T07:00:23;17.32;;;7.17;;
73850;SDS011;62190;51.548;5.688;2024-01-11T07:02:50;13.72;;;5.62;;
73850;SDS011;62190;51.548;5.688;2024-01-11T07:05:19;15.48;;;6.75;;
73850;SDS011;62190;51.548;5.688;2024-01-11T07:07:46;12.68;;;5.67;;
73850;SDS011;62190;51.548;5.688;2024-01-11T07:10:14;12.63;;;6.40;;
73850;SDS011;62190;51.548;5.688;2024-01-11T07:12:41;16.60;;;7.53;;
73850;SDS011;62190;51.548;5.688;2024-01-11T07:15:10;17.55;;;7.65;;
73850;SDS011;62190;51.548;5.688;2024-01-11T07:17:38;11.73;;;6.03;;
73850;SDS011;62190;51.548;5.688;2024-01-11T07:20:05;13.75;;;7.37;;
73850;SDS011;62190;51.548;5.688;2024-01-11T07:22:33;19.42;;;8.05;;
73850;SDS011;62190;51.548;5.688;2024-01-11T07:25:01;16.85;;;7.30;;
73850;SDS011;62190;51.548;5.688;2024-01-11T07:27:29;14.30;;;6.03;;
73850;SDS011;62190;51.548;5.688;2024-01-11T07:29:57;16.42;;;8.60;;
73850;SDS011;62190;51.548;5.688;2024-01-11T07:32:24;17.60;;;7.72;;
73850;SDS011;62190;51.548;5.688;2024-01-11T07:34:52;13.90;;;6.42;;
73850;SDS011;62190;51.548;5.688;2024-01-11T07:37:19;18.10;;;8.33;;
73850;SDS011;62190;51.548;5.688;2024-01-11T07:39:46;14.55;;;7.42;;
73850;SDS011;62190;51.548;5.688;2024-01-11T07:42:15;15.48;;;7.80;;
73850;SDS011;62190;51.548;5.688;2024-01-11T07:44:42;17.27;;;7.87;;
73850;SDS011;62190;51.548;5.688;2024-01-11T07:47:09;15.68;;;7.00;;
73850;SDS011;62190;51.548;5.688;2024-01-11T07:49:37;15.18;;;7.72;;
73850;SDS011;62190;51.548;5.688;2024-01-11T07:52:04;14.85;;;7.55;;
73850;SDS011;62190;51.548;5.688;2024-01-11T07:54:31;15.55;;;7.15;;
73850;SDS011;62190;51.548;5.688;2024-01-11T07:56:59;17.98;;;9.13;;
73850;SDS011;62190;51.548;5.688;2024-01-11T07:59:28;23.85;;;8.50;;
73850;SDS011;62190;51.548;5.688;2024-01-11T08:02:01;16.45;;;7.65;;
73850;SDS011;62190;51.548;5.688;2024-01-11T08:04:29;21.85;;;8.00;;
73850;SDS011;62190;51.548;5.688;2024-01-11T08:06:56;22.60;;;9.93;;
73850;SDS011;62190;51.548;5.688;2024-01-11T08:09:27;25.40;;;9.25;;
73850;SDS011;62190;51.548;5.688;2024-01-11T08:11:55;19.98;;;8.35;;
73850;SDS011;62190;51.548;5.688;2024-01-11T08:14:22;17.40;;;8.05;;
73850;SDS011;62190;51.548;5.688;2024-01-11T08:16:50;15.70;;;8.08;;
73850;SDS011;62190;51.548;5.688;2024-01-11T08:19:19;24.32;;;8.15;;
73850;SDS011;62190;51.548;5.688;2024-01-11T08:21:46;16.20;;;7.25;;
73850;SDS011;62190;51.548;5.688;2024-01-11T08:24:13;16.37;;;7.60;;
73850;SDS011;62190;51.548;5.688;2024-01-11T08:26:41;15.15;;;8.48;;
73850;SDS011;62190;51.548;5.688;2024-01-11T08:29:09;20.40;;;8.68;;
73850;SDS011;62190;51.548;5.688;2024-01-11T08:31:36;16.93;;;8.20;;
73850;SDS011;62190;51.548;5.688;2024-01-11T08:34:03;17.15;;;8.18;;
73850;SDS011;62190;51.548;5.688;2024-01-11T08:36:36;14.80;;;6.70;;
73850;SDS011;62190;51.548;5.688;2024-01-11T08:39:01;16.42;;;8.80;;
73850;SDS011;62190;51.548;5.688;2024-01-11T08:41:33;20.32;;;9.03;;
73850;SDS011;62190;51.548;5.688;2024-01-11T08:44:02;21.93;;;8.55;;
73850;SDS011;62190;51.548;5.688;2024-01-11T08:46:31;16.15;;;7.37;;
73850;SDS011;62190;51.548;5.688;2024-01-11T08:49:01;18.07;;;7.95;;
73850;SDS011;62190;51.548;5.688;2024-01-11T08:51:29;18.35;;;8.78;;
73850;SDS011;62190;51.548;5.688;2024-01-11T08:53:58;22.55;;;8.78;;
73850;SDS011;62190;51.548;5.688;2024-01-11T08:56:26;19.32;;;8.30;;
73850;SDS011;62190;51.548;5.688;2024-01-11T08:58:53;18.12;;;7.97;;
73850;SDS011;62190;51.548;5.688;2024-01-11T09:01:20;18.05;;;9.18;;
73850;SDS011;62190;51.548;5.688;2024-01-11T09:03:49;18.37;;;8.35;;
73850;SDS011;62190;51.548;5.688;2024-01-11T09:06:17;15.48;;;8.35;;
73850;SDS011;62190;51.548;5.688;2024-01-11T09:08:44;22.87;;;9.88;;
73850;SDS011;62190;51.548;5.688;2024-01-11T09:11:11;19.10;;;8.18;;
73850;SDS011;62190;51.548;5.688;2024-01-11T09:13:39;15.83;;;8.13;;
73850;SDS011;62190;51.548;5.688;2024-01-11T09:16:06;20.72;;;9.10;;
73850;SDS011;62190;51.548;5.688;2024-01-11T09:18:35;16.37;;;8.65;;
73850;SDS011;62190;51.548;5.688;2024-01-11T09:21:02;20.02;;;9.20;;
73850;SDS011;62190;51.548;5.688;2024-01-11T09:23:29;21.45;;;10.05;;
73850;SDS011;62190;51.548;5.688;2024-01-11T09:25:57;19.07;;;8.75;;
73850;SDS011;62190;51.548;5.688;2024-01-11T09:28:24;15.65;;;7.20;;
73850;SDS011;62190;51.548;5.688;2024-01-11T09:30:51;19.60;;;8.68;;
73850;SDS011;62190;51.548;5.688;2024-01-11T09:33:19;18.92;;;8.93;;
73850;SDS011;62190;51.548;5.688;2024-01-11T09:35:46;17.70;;;9.18;;
73850;SDS011;62190;51.548;5.688;2024-01-11T09:38:14;19.65;;;9.48;;
73850;SDS011;62190;51.548;5.688;2024-01-11T09:40:41;21.07;;;10.25;;
73850;SDS011;62190;51.548;5.688;2024-01-11T09:43:08;20.85;;;8.63;;
73850;SDS011;62190;51.548;5.688;2024-01-11T09:45:36;21.42;;;11.03;;
73850;SDS011;62190;51.548;5.688;2024-01-11T09:48:05;19.80;;;9.55;;
73850;SDS011;62190;51.548;5.688;2024-01-11T09:50:33;17.15;;;8.43;;
73850;SDS011;62190;51.548;5.688;2024-01-11T09:53:00;21.48;;;8.60;;
73850;SDS011;62190;51.548;5.688;2024-01-11T09:55:31;22.75;;;9.75;;
73850;SDS011;62190;51.548;5.688;2024-01-11T09:57:59;19.32;;;8.00;;
73850;SDS011;62190;51.548;5.688;2024-01-11T10:00:26;21.35;;;10.35;;
73850;SDS011;62190;51.548;5.688;2024-01-11T10:02:54;27.77;;;9.23;;
73850;SDS011;62190;51.548;5.688;2024-01-11T10:05:22;19.45;;;9.00;;
73850;SDS011;62190;51.548;5.688;2024-01-11T10:07:49;13.35;;;8.88;;
73850;SDS011;62190;51.548;5.688;2024-01-11T10:10:16;21.37;;;9.88;;
73850;SDS011;62190;51.548;5.688;2024-01-11T10:12:44;25.30;;;10.23;;
73850;SDS011;62190;51.548;5.688;2024-01-11T10:15:11;21.02;;;8.83;;
73850;SDS011;62190;51.548;5.688;2024-01-11T10:17:42;17.15;;;9.25;;
73850;SDS011;62190;51.548;5.688;2024-01-11T10:20:14;22.48;;;9.05;;
73850;SDS011;62190;51.548;5.688;2024-01-11T10:22:43;19.65;;;9.05;;
73850;SDS011;62190;51.548;5.688;2024-01-11T10:25:12;20.35;;;8.58;;
73850;SDS011;62190;51.548;5.688;2024-01-11T10:27:41;21.70;;;10.05;;
73850;SDS011;62190;51.548;5.688;2024-01-11T10:30:13;17.57;;;8.08;;
73850;SDS011;62190;51.548;5.688;2024-01-11T10:32:46;20.85;;;10.68;;
73850;SDS011;62190;51.548;5.688;2024-01-11T10:35:14;15.65;;;9.73;;
73850;SDS011;62190;51.548;5.688;2024-01-11T10:37:43;16.40;;;8.68;;
73850;SDS011;62190;51.548;5.688;2024-01-11T10:40:11;22.05;;;9.30;;
73850;SDS011;62190;51.548;5.688;2024-01-11T10:42:45;18.98;;;10.28;;
73850;SDS011;62190;51.548;5.688;2024-01-11T10:45:15;18.65;;;9.05;;
73850;SDS011;62190;51.548;5.688;2024-01-11T10:47:47;22.95;;;9.63;;
73850;SDS011;62190;51.548;5.688;2024-01-11T10:50:19;14.18;;;8.63;;
73850;SDS011;62190;51.548;5.688;2024-01-11T10:53:02;20.80;;;9.80;;
73850;SDS011;62190;51.548;5.688;2024-01-11T10:55:31;21.50;;;9.23;;
73850;SDS011;62190;51.548;5.688;2024-01-11T10:58:00;16.02;;;8.63;;
73850;SDS011;62190;51.548;5.688;2024-01-11T11:00:28;21.05;;;9.28;;
73850;SDS011;62190;51.548;5.688;2024-01-11T11:02:55;20.72;;;8.45;;
73850;SDS011;62190;51.548;5.688;2024-01-11T11:05:27;23.25;;;9.48;;
73850;SDS011;62190;51.548;5.688;2024-01-11T11:07:55;27.58;;;10.03;;
73850;SDS011;62190;51.548;5.688;2024-01-11T11:10:23;22.30;;;11.53;;
73850;SDS011;62190;51.548;5.688;2024-01-11T11:12:51;17.70;;;8.55;;
73850;SDS011;62190;51.548;5.688;2024-01-11T11:15:30;21.42;;;10.40;;
73850;SDS011;62190;51.548;5.688;2024-01-11T11:17:54;23.30;;;10.28;;
73850;SDS011;62190;51.548;5.688;2024-01-11T11:20:22;25.52;;;11.08;;
73850;SDS011;62190;51.548;5.688;2024-01-11T11:23:05;28.70;;;10.05;;
73850;SDS011;62190;51.548;5.688;2024-01-11T11:25:35;20.00;;;9.48;;
73850;SDS011;62190;51.548;5.688;2024-01-11T11:28:04;20.48;;;9.08;;
73850;SDS011;62190;51.548;5.688;2024-01-11T11:30:32;21.15;;;11.55;;
73850;SDS011;62190;51.548;5.688;2024-01-11T11:33:15;22.67;;;10.03;;
73850;SDS011;62190;51.548;5.688;2024-01-11T11:35:37;21.50;;;9.38;;
73850;SDS011;62190;51.548;5.688;2024-01-11T11:38:05;25.45;;;11.12;;
73850;SDS011;62190;51.548;5.688;2024-01-11T11:40:32;30.10;;;11.22;;
73850;SDS011;62190;51.548;5.688;2024-01-11T11:43:04;21.00;;;10.10;;
73850;SDS011;62190;51.548;5.688;2024-01-11T11:45:32;23.20;;;9.98;;
73850;SDS011;62190;51.548;5.688;2024-01-11T11:47:59;21.27;;;9.28;;
73850;SDS011;62190;51.548;5.688;2024-01-11T11:50:27;29.07;;;10.82;;
73850;SDS011;62190;51.548;5.688;2024-01-11T11:52:57;21.52;;;10.45;;
73850;SDS011;62190;51.548;5.688;2024-01-11T11:55:24;23.67;;;11.25;;
73850;SDS011;62190;51.548;5.688;2024-01-11T11:57:52;24.80;;;10.30;;
73850;SDS011;62190;51.548;5.688;2024-01-11T12:00:20;24.37;;;11.03;;
73850;SDS011;62190;51.548;5.688;2024-01-11T12:02:49;20.80;;;9.08;;
73850;SDS011;62190;51.548;5.688;2024-01-11T12:05:19;23.40;;;10.60;;
73850;SDS011;62190;51.548;5.688;2024-01-11T12:07:47;21.80;;;10.38;;
73850;SDS011;62190;51.548;5.688;2024-01-11T12:10:14;30.12;;;11.43;;
73850;SDS011;62190;51.548;5.688;2024-01-11T12:12:41;22.37;;;11.80;;
73850;SDS011;62190;51.548;5.688;2024-01-11T12:15:09;19.65;;;9.58;;
73850;SDS011;62190;51.548;5.688;2024-01-11T12:17:36;22.45;;;10.25;;
73850;SDS011;62190;51.548;5.688;2024-01-11T12:20:05;19.17;;;10.40;;
73850;SDS011;62190;51.548;5.688;2024-01-11T12:22:33;30.50;;;12.10;;
73850;SDS011;62190;51.548;5.688;2024-01-11T12:25:01;20.68;;;10.43;;
73850;SDS011;62190;51.548;5.688;2024-01-11T12:27:28;23.10;;;10.82;;
73850;SDS011;62190;51.548;5.688;2024-01-11T12:29:56;20.08;;;9.28;;
73850;SDS011;62190;51.548;5.688;2024-01-11T12:32:23;25.77;;;10.28;;
73850;SDS011;62190;51.548;5.688;2024-01-11T12:34:51;24.05;;;10.58;;
73850;SDS011;62190;51.548;5.688;2024-01-11T12:37:19;25.60;;;10.45;;
73850;SDS011;62190;51.548;5.688;2024-01-11T12:39:47;21.97;;;9.80;;
73850;SDS011;62190;51.548;5.688;2024-01-11T12:42:15;20.77;;;8.95;;
73850;SDS011;62190;51.548;5.688;2024-01-11T12:44:42;20.02;;;9.25;;
73850;SDS011;62190;51.548;5.688;2024-01-11T12:47:10;18.35;;;8.55;;
73850;SDS011;62190;51.548;5.688;2024-01-11T12:49:37;17.48;;;8.83;;
73850;SDS011;62190;51.548;5.688;2024-01-11T12:52:07;22.25;;;8.88;;
73850;SDS011;62190;51.548;5.688;2024-01-11T12:54:36;21.55;;;9.90;;
73850;SDS011;62190;51.548;5.688;2024-01-11T12:57:04;21.77;;;10.38;;
73850;SDS011;62190;51.548;5.688;2024-01-11T12:59:31;21.45;;;8.88;;
73850;SDS011;62190;51.548;5.688;2024-01-11T13:01:58;18.10;;;8.35;;
73850;SDS011;62190;51.548;5.688;2024-01-11T13:04:26;18.40;;;8.58;;
73850;SDS011;62190;51.548;5.688;2024-01-11T13:06:55;16.37;;;8.30;;
73850;SDS011;62190;51.548;5.688;2024-01-11T13:11:50;18.60;;;9.25;;
73850;SDS011;62190;51.548;5.688;2024-01-11T13:14:18;19.75;;;8.68;;
73850;SDS011;62190;51.548;5.688;2024-01-11T13:16:46;22.02;;;10.48;;
73850;SDS011;62190;51.548;5.688;2024-01-11T13:19:14;21.52;;;9.83;;
73850;SDS011;62190;51.548;5.688;2024-01-11T13:21:41;19.90;;;9.73;;
73850;SDS011;62190;51.548;5.688;2024-01-11T13:24:09;24.10;;;11.30;;
73850;SDS011;62190;51.548;5.688;2024-01-11T13:26:38;24.47;;;10.58;;
73850;SDS011;62190;51.548;5.688;2024-01-11T13:29:06;22.25;;;10.10;;
73850;SDS011;62190;51.548;5.688;2024-01-11T13:31:33;20.17;;;9.75;;
73850;SDS011;62190;51.548;5.688;2024-01-11T13:34:00;21.87;;;10.15;;
73850;SDS011;62190;51.548;5.688;2024-01-11T13:36:29;18.65;;;8.45;;
73850;SDS011;62190;51.548;5.688;2024-01-11T13:38:56;15.32;;;6.35;;
73850;SDS011;62190;51.548;5.688;2024-01-11T13:41:23;11.57;;;4.85;;
73850;SDS011;62190;51.548;5.688;2024-01-11T13:43:51;9.38;;;3.10;;
73850;SDS011;62190;51.548;5.688;2024-01-11T13:46:20;8.28;;;2.80;;
73850;SDS011;62190;51.548;5.688;2024-01-11T13:48:47;6.75;;;2.87;;
73850;SDS011;62190;51.548;5.688;2024-01-11T13:51:14;11.95;;;3.65;;
73850;SDS011;62190;51.548;5.688;2024-01-11T13:53:41;9.55;;;3.15;;
73850;SDS011;62190;51.548;5.688;2024-01-11T13:56:09;7.37;;;3.22;;
73850;SDS011;62190;51.548;5.688;2024-01-11T13:58:36;5.62;;;2.85;;
73850;SDS011;62190;51.548;5.688;2024-01-11T14:01:04;6.45;;;3.10;;
73850;SDS011;62190;51.548;5.688;2024-01-11T14:03:33;7.05;;;2.98;;
73850;SDS011;62190;51.548;5.688;2024-01-11T14:06:00;7.58;;;3.12;;
73850;SDS011;62190;51.548;5.688;2024-01-11T14:08:28;11.70;;;3.12;;
73850;SDS011;62190;51.548;5.688;2024-01-11T14:10:55;10.35;;;3.90;;
73850;SDS011;62190;51.548;5.688;2024-01-11T14:13:22;11.25;;;3.45;;
73850;SDS011;62190;51.548;5.688;2024-01-11T14:15:49;7.70;;;2.60;;
73850;SDS011;62190;51.548;5.688;2024-01-11T14:18:17;13.90;;;4.42;;
73850;SDS011;62190;51.548;5.688;2024-01-11T14:20:44;12.82;;;3.75;;
73850;SDS011;62190;51.548;5.688;2024-01-11T14:23:11;12.93;;;4.20;;
73850;SDS011;62190;51.548;5.688;2024-01-11T14:25:39;10.00;;;4.12;;
73850;SDS011;62190;51.548;5.688;2024-01-11T14:28:06;8.75;;;3.52;;
73850;SDS011;62190;51.548;5.688;2024-01-11T14:30:33;10.13;;;3.55;;
73850;SDS011;62190;51.548;5.688;2024-01-11T14:33:01;6.80;;;3.20;;
73850;SDS011;62190;51.548;5.688;2024-01-11T14:35:28;9.10;;;3.65;;
73850;SDS011;62190;51.548;5.688;2024-01-11T14:37:56;8.45;;;3.67;;
73850;SDS011;62190;51.548;5.688;2024-01-11T14:40:24;11.65;;;4.17;;